sensor_id;sensor_type;location;lat;lon;timestamp;P1;P2;P0
62591;PMS5003;48659;41.622;2.276;2023-03-01T00:01:15;15;13;
62591;PMS5003;48659;41.622;2.276;2023-03-01T00:03:44;13;13;
62591;PMS5003;48659;41.622;2.276;2023-03-01T00:06:12;15;15;
62591;PMS5003;48659;41.622;2.276;2023-03-01T00:08:51;12;12;
62591;PMS5003;48659;41.622;2.276;2023-03-01T00:11:24;13;13;
62591;PMS5003;48659;41.622;2.276;2023-03-01T00:13:54;12;12;
62591;PMS5003;48659;41.622;2.276;2023-03-01T00:16:24;14;12;
62591;PMS5003;48659;41.622;2.276;2023-03-01T00:18:53;14;13;
62591;PMS5003;48659;41.622;2.276;2023-03-01T00:21:21;17;14;
62591;PMS5003;48659;41.622;2.276;2023-03-01T00:23:49;11;11;
62591;PMS5003;48659;41.622;2.276;2023-03-01T00:26:18;15;14;
62591;PMS5003;48659;41.622;2.276;2023-03-01T00:28:46;14;13;
62591;PMS5003;48659;41.622;2.276;2023-03-01T00:31:15;11;11;
62591;PMS5003;48659;41.622;2.276;2023-03-01T00:33:56;12;12;
62591;PMS5003;48659;41.622;2.276;2023-03-01T00:36:31;13;13;
62591;PMS5003;48659;41.622;2.276;2023-03-01T00:39:01;11;11;
62591;PMS5003;48659;41.622;2.276;2023-03-01T00:41:30;13;11;
62591;PMS5003;48659;41.622;2.276;2023-03-01T00:43:59;14;14;
62591;PMS5003;48659;41.622;2.276;2023-03-01T00:46:27;12;12;
62591;PMS5003;48659;41.622;2.276;2023-03-01T00:48:55;18;15;
62591;PMS5003;48659;41.622;2.276;2023-03-01T00:51:25;13;13;
62591;PMS5003;48659;41.622;2.276;2023-03-01T00:53:54;12;12;
62591;PMS5003;48659;41.622;2.276;2023-03-01T00:56:24;15;13;
62591;PMS5003;48659;41.622;2.276;2023-03-01T00:59:15;13;12;
62591;PMS5003;48659;41.622;2.276;2023-03-01T01:01:43;14;14;
62591;PMS5003;48659;41.622;2.276;2023-03-01T01:04:11;13;13;
62591;PMS5003;48659;41.622;2.276;2023-03-01T01:06:40;14;11;
62591;PMS5003;48659;41.622;2.276;2023-03-01T01:09:10;11;11;
62591;PMS5003;48659;41.622;2.276;2023-03-01T01:11:40;12;12;
62591;PMS5003;48659;41.622;2.276;2023-03-01T01:14:07;11;11;
62591;PMS5003;48659;41.622;2.276;2023-03-01T01:16:34;13;13;
62591;PMS5003;48659;41.622;2.276;2023-03-01T01:19:02;17;12;
62591;PMS5003;48659;41.622;2.276;2023-03-01T01:21:30;14;14;
62591;PMS5003;48659;41.622;2.276;2023-03-01T01:23:58;13;13;
62591;PMS5003;48659;41.622;2.276;2023-03-01T01:26:27;14;13;
62591;PMS5003;48659;41.622;2.276;2023-03-01T01:28:56;11;11;
62591;PMS5003;48659;41.622;2.276;2023-03-01T01:31:24;14;12;
62591;PMS5003;48659;41.622;2.276;2023-03-01T01:33:53;11;11;
62591;PMS5003;48659;41.622;2.276;2023-03-01T01:36:22;13;11;
62591;PMS5003;48659;41.622;2.276;2023-03-01T01:38:50;19;16;
62591;PMS5003;48659;41.622;2.276;2023-03-01T01:41:24;13;13;
62591;PMS5003;48659;41.622;2.276;2023-03-01T01:44:11;14;11;
62591;PMS5003;48659;41.622;2.276;2023-03-01T01:46:41;14;12;
62591;PMS5003;48659;41.622;2.276;2023-03-01T01:49:15;14;13;
62591;PMS5003;48659;41.622;2.276;2023-03-01T01:51:55;13;13;
62591;PMS5003;48659;41.622;2.276;2023-03-01T01:54:27;17;16;
62591;PMS5003;48659;41.622;2.276;2023-03-01T01:57:05;14;14;
62591;PMS5003;48659;41.622;2.276;2023-03-01T01:59:38;11;11;
62591;PMS5003;48659;41.622;2.276;2023-03-01T02:02:07;12;12;
62591;PMS5003;48659;41.622;2.276;2023-03-01T02:04:35;13;12;
62591;PMS5003;48659;41.622;2.276;2023-03-01T02:07:05;16;11;
62591;PMS5003;48659;41.622;2.276;2023-03-01T02:09:39;15;14;
62591;PMS5003;48659;41.622;2.276;2023-03-01T02:12:09;12;12;
62591;PMS5003;48659;41.622;2.276;2023-03-01T02:14:36;13;13;
62591;PMS5003;48659;41.622;2.276;2023-03-01T02:17:03;9;9;
62591;PMS5003;48659;41.622;2.276;2023-03-01T02:19:33;13;13;
62591;PMS5003;48659;41.622;2.276;2023-03-01T02:22:12;13;13;
62591;PMS5003;48659;41.622;2.276;2023-03-01T02:24:49;13;11;
62591;PMS5003;48659;41.622;2.276;2023-03-01T02:31:13;13;12;
62591;PMS5003;48659;41.622;2.276;2023-03-01T02:33:43;13;12;
62591;PMS5003;48659;41.622;2.276;2023-03-01T02:36:14;13;12;
62591;PMS5003;48659;41.622;2.276;2023-03-01T02:38:45;13;12;
62591;PMS5003;48659;41.622;2.276;2023-03-01T02:41:15;15;14;
62591;PMS5003;48659;41.622;2.276;2023-03-01T02:43:44;13;12;
62591;PMS5003;48659;41.622;2.276;2023-03-01T02:46:14;14;13;
62591;PMS5003;48659;41.622;2.276;2023-03-01T02:48:44;16;12;
62591;PMS5003;48659;41.622;2.276;2023-03-01T02:51:18;13;11;
62591;PMS5003;48659;41.622;2.276;2023-03-01T02:54:05;12;12;
62591;PMS5003;48659;41.622;2.276;2023-03-01T02:56:40;15;14;
62591;PMS5003;48659;41.622;2.276;2023-03-01T02:59:09;12;12;
62591;PMS5003;48659;41.622;2.276;2023-03-01T03:01:38;17;12;
62591;PMS5003;48659;41.622;2.276;2023-03-01T03:04:06;15;11;
62591;PMS5003;48659;41.622;2.276;2023-03-01T03:06:37;16;16;
62591;PMS5003;48659;41.622;2.276;2023-03-01T03:09:05;12;12;
62591;PMS5003;48659;41.622;2.276;2023-03-01T03:11:47;13;13;
62591;PMS5003;48659;41.622;2.276;2023-03-01T03:14:15;15;15;
62591;PMS5003;48659;41.622;2.276;2023-03-01T03:16:44;21;14;
62591;PMS5003;48659;41.622;2.276;2023-03-01T03:19:13;16;14;
62591;PMS5003;48659;41.622;2.276;2023-03-01T03:21:42;18;15;
62591;PMS5003;48659;41.622;2.276;2023-03-01T03:24:09;18;15;
62591;PMS5003;48659;41.622;2.276;2023-03-01T03:26:37;18;17;
62591;PMS5003;48659;41.622;2.276;2023-03-01T03:29:04;25;25;
62591;PMS5003;48659;41.622;2.276;2023-03-01T03:31:31;26;24;
62591;PMS5003;48659;41.622;2.276;2023-03-01T03:33:59;24;23;
62591;PMS5003;48659;41.622;2.276;2023-03-01T03:36:27;23;23;
62591;PMS5003;48659;41.622;2.276;2023-03-01T03:39:10;20;19;
62591;PMS5003;48659;41.622;2.276;2023-03-01T03:41:37;25;20;
62591;PMS5003;48659;41.622;2.276;2023-03-01T03:44:04;22;22;
62591;PMS5003;48659;41.622;2.276;2023-03-01T03:46:32;21;21;
62591;PMS5003;48659;41.622;2.276;2023-03-01T03:48:59;34;31;
62591;PMS5003;48659;41.622;2.276;2023-03-01T03:51:26;25;24;
62591;PMS5003;48659;41.622;2.276;2023-03-01T03:53:53;25;25;
62591;PMS5003;48659;41.622;2.276;2023-03-01T03:56:21;26;26;
62591;PMS5003;48659;41.622;2.276;2023-03-01T03:58:48;24;23;
62591;PMS5003;48659;41.622;2.276;2023-03-01T04:01:16;22;20;
62591;PMS5003;48659;41.622;2.276;2023-03-01T04:03:45;25;20;
62591;PMS5003;48659;41.622;2.276;2023-03-01T04:06:13;23;21;
62591;PMS5003;48659;41.622;2.276;2023-03-01T04:08:40;22;20;
62591;PMS5003;48659;41.622;2.276;2023-03-01T04:11:08;27;24;
62591;PMS5003;48659;41.622;2.276;2023-03-01T04:13:36;24;21;
62591;PMS5003;48659;41.622;2.276;2023-03-01T04:16:03;24;23;
62591;PMS5003;48659;41.622;2.276;2023-03-01T04:18:31;21;20;
62591;PMS5003;48659;41.622;2.276;2023-03-01T04:20:59;32;27;
62591;PMS5003;48659;41.622;2.276;2023-03-01T04:23:26;21;21;
62591;PMS5003;48659;41.622;2.276;2023-03-01T04:25:56;22;20;
62591;PMS5003;48659;41.622;2.276;2023-03-01T04:28:25;21;19;
62591;PMS5003;48659;41.622;2.276;2023-03-01T04:30:54;19;19;
62591;PMS5003;48659;41.622;2.276;2023-03-01T04:33:24;22;20;
62591;PMS5003;48659;41.622;2.276;2023-03-01T04:35:52;19;18;
62591;PMS5003;48659;41.622;2.276;2023-03-01T04:38:20;25;22;
62591;PMS5003;48659;41.622;2.276;2023-03-01T04:40:48;19;17;
62591;PMS5003;48659;41.622;2.276;2023-03-01T04:43:16;25;21;
62591;PMS5003;48659;41.622;2.276;2023-03-01T04:45:43;18;16;
62591;PMS5003;48659;41.622;2.276;2023-03-01T04:48:11;14;14;
62591;PMS5003;48659;41.622;2.276;2023-03-01T04:50:39;14;13;
62591;PMS5003;48659;41.622;2.276;2023-03-01T04:53:06;20;20;
62591;PMS5003;48659;41.622;2.276;2023-03-01T04:55:36;20;17;
62591;PMS5003;48659;41.622;2.276;2023-03-01T04:58:04;20;19;
62591;PMS5003;48659;41.622;2.276;2023-03-01T05:00:47;18;18;
62591;PMS5003;48659;41.622;2.276;2023-03-01T05:03:14;25;25;
62591;PMS5003;48659;41.622;2.276;2023-03-01T05:05:42;19;15;
62591;PMS5003;48659;41.622;2.276;2023-03-01T05:08:10;24;21;
62591;PMS5003;48659;41.622;2.276;2023-03-01T05:10:37;28;26;
62591;PMS5003;48659;41.622;2.276;2023-03-01T05:13:04;20;18;
62591;PMS5003;48659;41.622;2.276;2023-03-01T05:15:36;23;19;
62591;PMS5003;48659;41.622;2.276;2023-03-01T05:18:04;24;18;
62591;PMS5003;48659;41.622;2.276;2023-03-01T05:20:32;25;22;
62591;PMS5003;48659;41.622;2.276;2023-03-01T05:23:00;24;23;
62591;PMS5003;48659;41.622;2.276;2023-03-01T05:25:27;22;21;
62591;PMS5003;48659;41.622;2.276;2023-03-01T05:28:11;24;20;
62591;PMS5003;48659;41.622;2.276;2023-03-01T05:30:39;28;22;
62591;PMS5003;48659;41.622;2.276;2023-03-01T05:33:08;31;27;
62591;PMS5003;48659;41.622;2.276;2023-03-01T05:35:36;28;26;
62591;PMS5003;48659;41.622;2.276;2023-03-01T05:38:04;32;28;
62591;PMS5003;48659;41.622;2.276;2023-03-01T05:40:39;30;27;
62591;PMS5003;48659;41.622;2.276;2023-03-01T05:43:07;27;25;
62591;PMS5003;48659;41.622;2.276;2023-03-01T05:45:35;31;27;
62591;PMS5003;48659;41.622;2.276;2023-03-01T05:48:06;30;26;
62591;PMS5003;48659;41.622;2.276;2023-03-01T05:50:38;24;22;
62591;PMS5003;48659;41.622;2.276;2023-03-01T05:53:09;44;40;
62591;PMS5003;48659;41.622;2.276;2023-03-01T05:55:39;38;34;
62591;PMS5003;48659;41.622;2.276;2023-03-01T05:58:07;38;34;
62591;PMS5003;48659;41.622;2.276;2023-03-01T06:00:38;33;33;
62591;PMS5003;48659;41.622;2.276;2023-03-01T06:03:05;35;30;
62591;PMS5003;48659;41.622;2.276;2023-03-01T06:05:33;39;36;
62591;PMS5003;48659;41.622;2.276;2023-03-01T06:08:01;38;32;
62591;PMS5003;48659;41.622;2.276;2023-03-01T06:10:36;38;32;
62591;PMS5003;48659;41.622;2.276;2023-03-01T06:13:03;34;31;
62591;PMS5003;48659;41.622;2.276;2023-03-01T06:15:36;41;33;
62591;PMS5003;48659;41.622;2.276;2023-03-01T06:18:04;39;32;
62591;PMS5003;48659;41.622;2.276;2023-03-01T06:20:31;27;20;
62591;PMS5003;48659;41.622;2.276;2023-03-01T06:22:59;26;22;
62591;PMS5003;48659;41.622;2.276;2023-03-01T06:25:27;22;21;
62591;PMS5003;48659;41.622;2.276;2023-03-01T06:27:55;32;31;
62591;PMS5003;48659;41.622;2.276;2023-03-01T06:30:24;30;22;
62591;PMS5003;48659;41.622;2.276;2023-03-01T06:32:52;36;33;
62591;PMS5003;48659;41.622;2.276;2023-03-01T06:35:20;41;35;
62591;PMS5003;48659;41.622;2.276;2023-03-01T06:37:47;28;26;
62591;PMS5003;48659;41.622;2.276;2023-03-01T06:40:15;24;24;
62591;PMS5003;48659;41.622;2.276;2023-03-01T06:42:43;41;37;
62591;PMS5003;48659;41.622;2.276;2023-03-01T06:45:15;43;32;
62591;PMS5003;48659;41.622;2.276;2023-03-01T06:47:43;26;24;
62591;PMS5003;48659;41.622;2.276;2023-03-01T06:50:12;33;30;
62591;PMS5003;48659;41.622;2.276;2023-03-01T06:52:41;31;30;
62591;PMS5003;48659;41.622;2.276;2023-03-01T06:55:08;31;28;
62591;PMS5003;48659;41.622;2.276;2023-03-01T06:57:36;30;25;
62591;PMS5003;48659;41.622;2.276;2023-03-01T07:00:03;30;29;
62591;PMS5003;48659;41.622;2.276;2023-03-01T07:02:36;28;27;
62591;PMS5003;48659;41.622;2.276;2023-03-01T07:05:03;27;27;
62591;PMS5003;48659;41.622;2.276;2023-03-01T07:07:36;26;25;
62591;PMS5003;48659;41.622;2.276;2023-03-01T07:10:04;26;23;
62591;PMS5003;48659;41.622;2.276;2023-03-01T07:12:37;26;25;
62591;PMS5003;48659;41.622;2.276;2023-03-01T07:15:06;25;22;
62591;PMS5003;48659;41.622;2.276;2023-03-01T07:17:36;28;24;
62591;PMS5003;48659;41.622;2.276;2023-03-01T07:20:04;27;23;
62591;PMS5003;48659;41.622;2.276;2023-03-01T07:22:32;29;27;
62591;PMS5003;48659;41.622;2.276;2023-03-01T07:24:59;23;23;
62591;PMS5003;48659;41.622;2.276;2023-03-01T07:27:26;20;19;
62591;PMS5003;48659;41.622;2.276;2023-03-01T07:29:53;23;23;
62591;PMS5003;48659;41.622;2.276;2023-03-01T07:32:21;27;24;
62591;PMS5003;48659;41.622;2.276;2023-03-01T07:34:48;26;23;
62591;PMS5003;48659;41.622;2.276;2023-03-01T07:37:17;29;26;
62591;PMS5003;48659;41.622;2.276;2023-03-01T07:39:44;31;31;
62591;PMS5003;48659;41.622;2.276;2023-03-01T07:42:11;34;32;
62591;PMS5003;48659;41.622;2.276;2023-03-01T07:44:39;34;33;
62591;PMS5003;48659;41.622;2.276;2023-03-01T07:47:06;28;26;
62591;PMS5003;48659;41.622;2.276;2023-03-01T07:49:35;37;30;
62591;PMS5003;48659;41.622;2.276;2023-03-01T07:52:03;38;36;
62591;PMS5003;48659;41.622;2.276;2023-03-01T07:54:31;30;29;
62591;PMS5003;48659;41.622;2.276;2023-03-01T07:56:58;34;32;
62591;PMS5003;48659;41.622;2.276;2023-03-01T07:59:26;34;33;
62591;PMS5003;48659;41.622;2.276;2023-03-01T08:01:53;32;32;
62591;PMS5003;48659;41.622;2.276;2023-03-01T08:04:21;34;30;
62591;PMS5003;48659;41.622;2.276;2023-03-01T08:06:49;31;27;
62591;PMS5003;48659;41.622;2.276;2023-03-01T08:09:16;29;29;
62591;PMS5003;48659;41.622;2.276;2023-03-01T08:11:43;31;28;
62591;PMS5003;48659;41.622;2.276;2023-03-01T08:14:11;32;30;
62591;PMS5003;48659;41.622;2.276;2023-03-01T08:16:38;34;31;
62591;PMS5003;48659;41.622;2.276;2023-03-01T08:19:06;37;33;
62591;PMS5003;48659;41.622;2.276;2023-03-01T08:21:37;46;40;
62591;PMS5003;48659;41.622;2.276;2023-03-01T08:24:06;35;32;
62591;PMS5003;48659;41.622;2.276;2023-03-01T08:26:36;35;32;
62591;PMS5003;48659;41.622;2.276;2023-03-01T08:29:03;39;39;
62591;PMS5003;48659;41.622;2.276;2023-03-01T08:31:37;37;34;
62591;PMS5003;48659;41.622;2.276;2023-03-01T08:34:07;41;39;
62591;PMS5003;48659;41.622;2.276;2023-03-01T08:36:37;44;38;
62591;PMS5003;48659;41.622;2.276;2023-03-01T08:39:07;40;35;
62591;PMS5003;48659;41.622;2.276;2023-03-01T08:41:37;46;40;
62591;PMS5003;48659;41.622;2.276;2023-03-01T08:44:06;40;36;
62591;PMS5003;48659;41.622;2.276;2023-03-01T08:46:37;41;38;
62591;PMS5003;48659;41.622;2.276;2023-03-01T08:49:08;40;34;
62591;PMS5003;48659;41.622;2.276;2023-03-01T08:51:38;38;34;
62591;PMS5003;48659;41.622;2.276;2023-03-01T08:54:09;46;40;
62591;PMS5003;48659;41.622;2.276;2023-03-01T08:56:38;42;39;
62591;PMS5003;48659;41.622;2.276;2023-03-01T08:59:06;34;33;
62591;PMS5003;48659;41.622;2.276;2023-03-01T09:01:37;36;34;
62591;PMS5003;48659;41.622;2.276;2023-03-01T09:04:06;31;30;
62591;PMS5003;48659;41.622;2.276;2023-03-01T09:06:36;38;35;
62591;PMS5003;48659;41.622;2.276;2023-03-01T09:09:04;37;32;
62591;PMS5003;48659;41.622;2.276;2023-03-01T09:11:36;37;32;
62591;PMS5003;48659;41.622;2.276;2023-03-01T09:14:04;33;29;
62591;PMS5003;48659;41.622;2.276;2023-03-01T09:16:36;37;34;
62591;PMS5003;48659;41.622;2.276;2023-03-01T09:19:05;28;26;
62591;PMS5003;48659;41.622;2.276;2023-03-01T09:21:36;39;36;
62591;PMS5003;48659;41.622;2.276;2023-03-01T09:24:05;32;32;
62591;PMS5003;48659;41.622;2.276;2023-03-01T09:26:36;38;36;
62591;PMS5003;48659;41.622;2.276;2023-03-01T09:29:04;43;39;
62591;PMS5003;48659;41.622;2.276;2023-03-01T09:31:36;37;32;
62591;PMS5003;48659;41.622;2.276;2023-03-01T09:34:04;43;38;
62591;PMS5003;48659;41.622;2.276;2023-03-01T09:36:37;41;34;
62591;PMS5003;48659;41.622;2.276;2023-03-01T09:39:05;37;36;
62591;PMS5003;48659;41.622;2.276;2023-03-01T09:41:49;49;41;
62591;PMS5003;48659;41.622;2.276;2023-03-01T09:44:26;39;34;
62591;PMS5003;48659;41.622;2.276;2023-03-01T09:47:09;41;38;
62591;PMS5003;48659;41.622;2.276;2023-03-01T09:49:43;41;36;
62591;PMS5003;48659;41.622;2.276;2023-03-01T09:52:23;35;32;
62591;PMS5003;48659;41.622;2.276;2023-03-01T09:55:05;34;32;
62591;PMS5003;48659;41.622;2.276;2023-03-01T09:57:40;36;35;
62591;PMS5003;48659;41.622;2.276;2023-03-01T10:00:19;42;36;
62591;PMS5003;48659;41.622;2.276;2023-03-01T10:03:11;34;31;
62591;PMS5003;48659;41.622;2.276;2023-03-01T10:05:47;45;39;
62591;PMS5003;48659;41.622;2.276;2023-03-01T10:08:28;42;39;
62591;PMS5003;48659;41.622;2.276;2023-03-01T10:08:38;41;39;
62591;PMS5003;48659;41.622;2.276;2023-03-01T10:11:19;43;40;
62591;PMS5003;48659;41.622;2.276;2023-03-01T10:13:51;34;32;
62591;PMS5003;48659;41.622;2.276;2023-03-01T10:16:26;42;41;
62591;PMS5003;48659;41.622;2.276;2023-03-01T10:19:03;39;37;
62591;PMS5003;48659;41.622;2.276;2023-03-01T10:21:38;45;41;
62591;PMS5003;48659;41.622;2.276;2023-03-01T10:24:12;46;43;
62591;PMS5003;48659;41.622;2.276;2023-03-01T10:26:47;39;38;
62591;PMS5003;48659;41.622;2.276;2023-03-01T10:29:22;35;29;
62591;PMS5003;48659;41.622;2.276;2023-03-01T10:31:55;18;18;
62591;PMS5003;48659;41.622;2.276;2023-03-01T10:34:27;28;28;
62591;PMS5003;48659;41.622;2.276;2023-03-01T10:37:09;24;24;
62591;PMS5003;48659;41.622;2.276;2023-03-01T10:39:54;27;25;
62591;PMS5003;48659;41.622;2.276;2023-03-01T10:42:27;29;26;
62591;PMS5003;48659;41.622;2.276;2023-03-01T10:45:19;27;25;
62591;PMS5003;48659;41.622;2.276;2023-03-01T10:48:04;29;24;
62591;PMS5003;48659;41.622;2.276;2023-03-01T10:50:38;27;26;
62591;PMS5003;48659;41.622;2.276;2023-03-01T10:53:10;26;26;
62591;PMS5003;48659;41.622;2.276;2023-03-01T10:55:56;27;25;
62591;PMS5003;48659;41.622;2.276;2023-03-01T10:58:24;31;31;
62591;PMS5003;48659;41.622;2.276;2023-03-01T11:00:53;29;29;
62591;PMS5003;48659;41.622;2.276;2023-03-01T11:03:22;33;31;
62591;PMS5003;48659;41.622;2.276;2023-03-01T11:05:55;27;25;
62591;PMS5003;48659;41.622;2.276;2023-03-01T11:08:29;27;24;
62591;PMS5003;48659;41.622;2.276;2023-03-01T11:11:05;24;22;
62591;PMS5003;48659;41.622;2.276;2023-03-01T11:13:46;29;27;
62591;PMS5003;48659;41.622;2.276;2023-03-01T11:16:24;24;23;
62591;PMS5003;48659;41.622;2.276;2023-03-01T11:19:19;29;26;
62591;PMS5003;48659;41.622;2.276;2023-03-01T11:21:54;23;23;
62591;PMS5003;48659;41.622;2.276;2023-03-01T11:24:28;29;24;
62591;PMS5003;48659;41.622;2.276;2023-03-01T11:27:03;29;26;
62591;PMS5003;48659;41.622;2.276;2023-03-01T11:29:39;24;23;
62591;PMS5003;48659;41.622;2.276;2023-03-01T11:32:11;24;22;
62591;PMS5003;48659;41.622;2.276;2023-03-01T11:34:42;24;23;
62591;PMS5003;48659;41.622;2.276;2023-03-01T11:37:20;27;23;
62591;PMS5003;48659;41.622;2.276;2023-03-01T11:39:58;23;21;
62591;PMS5003;48659;41.622;2.276;2023-03-01T11:42:40;28;26;
62591;PMS5003;48659;41.622;2.276;2023-03-01T11:45:15;22;18;
62591;PMS5003;48659;41.622;2.276;2023-03-01T11:47:47;21;19;
62591;PMS5003;48659;41.622;2.276;2023-03-01T11:50:47;21;20;
62591;PMS5003;48659;41.622;2.276;2023-03-01T11:53:22;27;22;
62591;PMS5003;48659;41.622;2.276;2023-03-01T11:56:11;20;17;
62591;PMS5003;48659;41.622;2.276;2023-03-01T11:58:53;25;25;
62591;PMS5003;48659;41.622;2.276;2023-03-01T12:01:40;21;20;
62591;PMS5003;48659;41.622;2.276;2023-03-01T12:04:38;19;19;
62591;PMS5003;48659;41.622;2.276;2023-03-01T12:07:24;16;15;
62591;PMS5003;48659;41.622;2.276;2023-03-01T12:10:10;20;20;
62591;PMS5003;48659;41.622;2.276;2023-03-01T12:12:52;17;16;
62591;PMS5003;48659;41.622;2.276;2023-03-01T12:15:39;17;17;
62591;PMS5003;48659;41.622;2.276;2023-03-01T12:18:50;24;23;
62591;PMS5003;48659;41.622;2.276;2023-03-01T12:21:30;23;18;
62591;PMS5003;48659;41.622;2.276;2023-03-01T12:25:16;24;22;
62591;PMS5003;48659;41.622;2.276;2023-03-01T12:28:22;20;19;
62591;PMS5003;48659;41.622;2.276;2023-03-01T12:31:16;20;18;
62591;PMS5003;48659;41.622;2.276;2023-03-01T12:34:06;21;18;
62591;PMS5003;48659;41.622;2.276;2023-03-01T12:36:46;16;15;
62591;PMS5003;48659;41.622;2.276;2023-03-01T12:39:26;14;12;
62591;PMS5003;48659;41.622;2.276;2023-03-01T12:42:12;12;12;
62591;PMS5003;48659;41.622;2.276;2023-03-01T12:44:54;13;13;
62591;PMS5003;48659;41.622;2.276;2023-03-01T12:47:36;13;13;
62591;PMS5003;48659;41.622;2.276;2023-03-01T12:50:17;12;10;
62591;PMS5003;48659;41.622;2.276;2023-03-01T12:52:48;12;12;
62591;PMS5003;48659;41.622;2.276;2023-03-01T12:55:22;12;12;
62591;PMS5003;48659;41.622;2.276;2023-03-01T12:57:58;11;11;
62591;PMS5003;48659;41.622;2.276;2023-03-01T13:00:37;11;11;
62591;PMS5003;48659;41.622;2.276;2023-03-01T13:03:18;10;10;
62591;PMS5003;48659;41.622;2.276;2023-03-01T13:05:58;12;11;
62591;PMS5003;48659;41.622;2.276;2023-03-01T13:08:38;9;9;
62591;PMS5003;48659;41.622;2.276;2023-03-01T13:11:14;11;9;
62591;PMS5003;48659;41.622;2.276;2023-03-01T13:13:44;11;9;
62591;PMS5003;48659;41.622;2.276;2023-03-01T13:16:44;12;10;
62591;PMS5003;48659;41.622;2.276;2023-03-01T13:19:13;11;11;
62591;PMS5003;48659;41.622;2.276;2023-03-01T13:21:43;16;12;
62591;PMS5003;48659;41.622;2.276;2023-03-01T13:24:27;15;12;
62591;PMS5003;48659;41.622;2.276;2023-03-01T13:24:38;11;11;
62591;PMS5003;48659;41.622;2.276;2023-03-01T13:27:09;14;13;
62591;PMS5003;48659;41.622;2.276;2023-03-01T13:29:48;12;12;
62591;PMS5003;48659;41.622;2.276;2023-03-01T13:32:19;12;12;
62591;PMS5003;48659;41.622;2.276;2023-03-01T13:34:48;14;14;
62591;PMS5003;48659;41.622;2.276;2023-03-01T13:37:22;19;17;
62591;PMS5003;48659;41.622;2.276;2023-03-01T13:39:52;15;14;
62591;PMS5003;48659;41.622;2.276;2023-03-01T13:42:37;23;22;
62591;PMS5003;48659;41.622;2.276;2023-03-01T13:45:15;15;13;
62591;PMS5003;48659;41.622;2.276;2023-03-01T13:47:46;15;15;
62591;PMS5003;48659;41.622;2.276;2023-03-01T13:50:18;15;14;
62591;PMS5003;48659;41.622;2.276;2023-03-01T13:52:50;14;12;
62591;PMS5003;48659;41.622;2.276;2023-03-01T13:55:23;17;13;
62591;PMS5003;48659;41.622;2.276;2023-03-01T13:58:14;15;14;
62591;PMS5003;48659;41.622;2.276;2023-03-01T14:00:45;15;14;
62591;PMS5003;48659;41.622;2.276;2023-03-01T14:03:14;16;15;
62591;PMS5003;48659;41.622;2.276;2023-03-01T14:05:43;31;25;
62591;PMS5003;48659;41.622;2.276;2023-03-01T14:08:25;18;15;
62591;PMS5003;48659;41.622;2.276;2023-03-01T14:10:59;16;15;
62591;PMS5003;48659;41.622;2.276;2023-03-01T14:13:48;16;14;
62591;PMS5003;48659;41.622;2.276;2023-03-01T14:16:36;16;15;
62591;PMS5003;48659;41.622;2.276;2023-03-01T14:19:14;15;15;
62591;PMS5003;48659;41.622;2.276;2023-03-01T14:21:44;18;15;
62591;PMS5003;48659;41.622;2.276;2023-03-01T14:24:16;17;14;
62591;PMS5003;48659;41.622;2.276;2023-03-01T14:26:46;18;15;
62591;PMS5003;48659;41.622;2.276;2023-03-01T14:29:23;18;17;
62591;PMS5003;48659;41.622;2.276;2023-03-01T14:31:51;21;19;
62591;PMS5003;48659;41.622;2.276;2023-03-01T14:34:19;18;16;
62591;PMS5003;48659;41.622;2.276;2023-03-01T14:36:48;20;17;
62591;PMS5003;48659;41.622;2.276;2023-03-01T14:39:16;21;17;
62591;PMS5003;48659;41.622;2.276;2023-03-01T14:41:45;13;12;
62591;PMS5003;48659;41.622;2.276;2023-03-01T14:44:14;14;13;
62591;PMS5003;48659;41.622;2.276;2023-03-01T14:46:51;16;15;
62591;PMS5003;48659;41.622;2.276;2023-03-01T14:49:21;14;14;
62591;PMS5003;48659;41.622;2.276;2023-03-01T14:51:53;16;16;
62591;PMS5003;48659;41.622;2.276;2023-03-01T14:54:24;12;12;
62591;PMS5003;48659;41.622;2.276;2023-03-01T14:56:53;13;13;
62591;PMS5003;48659;41.622;2.276;2023-03-01T14:59:27;15;14;
62591;PMS5003;48659;41.622;2.276;2023-03-01T15:01:56;16;16;
62591;PMS5003;48659;41.622;2.276;2023-03-01T15:04:24;16;14;
62591;PMS5003;48659;41.622;2.276;2023-03-01T15:06:53;16;15;
62591;PMS5003;48659;41.622;2.276;2023-03-01T15:09:23;17;15;
62591;PMS5003;48659;41.622;2.276;2023-03-01T15:11:50;16;12;
62591;PMS5003;48659;41.622;2.276;2023-03-01T15:14:26;19;18;
62591;PMS5003;48659;41.622;2.276;2023-03-01T15:17:04;15;15;
62591;PMS5003;48659;41.622;2.276;2023-03-01T15:19:42;17;15;
62591;PMS5003;48659;41.622;2.276;2023-03-01T15:22:13;20;16;
62591;PMS5003;48659;41.622;2.276;2023-03-01T15:24:45;18;16;
62591;PMS5003;48659;41.622;2.276;2023-03-01T15:27:15;16;15;
62591;PMS5003;48659;41.622;2.276;2023-03-01T15:29:49;18;16;
62591;PMS5003;48659;41.622;2.276;2023-03-01T15:32:24;16;13;
62591;PMS5003;48659;41.622;2.276;2023-03-01T15:34:54;14;14;
62591;PMS5003;48659;41.622;2.276;2023-03-01T15:37:43;18;16;
62591;PMS5003;48659;41.622;2.276;2023-03-01T15:40:20;17;15;
62591;PMS5003;48659;41.622;2.276;2023-03-01T15:42:50;19;16;
62591;PMS5003;48659;41.622;2.276;2023-03-01T15:45:21;19;15;
62591;PMS5003;48659;41.622;2.276;2023-03-01T15:47:52;17;17;
62591;PMS5003;48659;41.622;2.276;2023-03-01T15:50:21;16;15;
62591;PMS5003;48659;41.622;2.276;2023-03-01T15:52:50;17;15;
62591;PMS5003;48659;41.622;2.276;2023-03-01T15:55:18;17;14;
62591;PMS5003;48659;41.622;2.276;2023-03-01T15:57:47;16;15;
62591;PMS5003;48659;41.622;2.276;2023-03-01T16:00:16;19;16;
62591;PMS5003;48659;41.622;2.276;2023-03-01T16:02:44;20;20;
62591;PMS5003;48659;41.622;2.276;2023-03-01T16:05:15;22;19;
62591;PMS5003;48659;41.622;2.276;2023-03-01T16:07:46;22;20;
62591;PMS5003;48659;41.622;2.276;2023-03-01T16:10:14;20;20;
62591;PMS5003;48659;41.622;2.276;2023-03-01T16:12:42;21;21;
62591;PMS5003;48659;41.622;2.276;2023-03-01T16:15:12;22;21;
62591;PMS5003;48659;41.622;2.276;2023-03-01T16:17:43;16;15;
62591;PMS5003;48659;41.622;2.276;2023-03-01T16:20:11;22;20;
62591;PMS5003;48659;41.622;2.276;2023-03-01T16:22:38;23;21;
62591;PMS5003;48659;41.622;2.276;2023-03-01T16:25:06;21;19;
62591;PMS5003;48659;41.622;2.276;2023-03-01T16:27:37;17;17;
62591;PMS5003;48659;41.622;2.276;2023-03-01T16:30:04;23;23;
62591;PMS5003;48659;41.622;2.276;2023-03-01T16:32:37;21;19;
62591;PMS5003;48659;41.622;2.276;2023-03-01T16:35:06;19;19;
62591;PMS5003;48659;41.622;2.276;2023-03-01T16:37:37;20;20;
62591;PMS5003;48659;41.622;2.276;2023-03-01T16:40:11;27;26;
62591;PMS5003;48659;41.622;2.276;2023-03-01T16:42:44;23;23;
62591;PMS5003;48659;41.622;2.276;2023-03-01T16:45:11;29;26;
62591;PMS5003;48659;41.622;2.276;2023-03-01T16:47:39;25;23;
62591;PMS5003;48659;41.622;2.276;2023-03-01T16:50:08;26;25;
62591;PMS5003;48659;41.622;2.276;2023-03-01T16:52:37;29;26;